createdAt,value
2022-08-23T00:00:13.926Z,99010.58
2022-08-23T00:03:02.617Z,99006.60
2022-08-23T00:05:32.896Z,99002.26
2022-08-23T00:08:01.147Z,98999.83
2022-08-23T00:10:29.291Z,98993.20
2022-08-23T00:12:57.230Z,98995.86
2022-08-23T00:15:25.474Z,98996.93
2022-08-23T00:17:53.346Z,99001.02
2022-08-23T00:20:22.539Z,98992.41
2022-08-23T00:22:50.818Z,98990.06
2022-08-23T00:25:18.788Z,98985.02
2022-08-23T00:27:46.886Z,98985.21
2022-08-23T00:30:16.673Z,98984.83
2022-08-23T00:32:45.741Z,98987.75
2022-08-23T00:35:26.574Z,98990.17
2022-08-23T00:38:32.054Z,98989.49
2022-08-23T00:40:53.000Z,98990.17
2022-08-23T00:43:48.596Z,98994.00
2022-08-23T00:47:02.362Z,98985.96
2022-08-23T00:49:32.348Z,98987.86
2022-08-23T00:52:35.588Z,98980.90
2022-08-23T00:55:04.647Z,98983.61
2022-08-23T00:57:34.167Z,98980.00
2022-08-23T01:00:02.022Z,98979.90
2022-08-23T01:02:30.101Z,98978.70
2022-08-23T01:05:00.449Z,98973.90
2022-08-23T01:07:41.539Z,98971.54
2022-08-23T01:10:19.920Z,98969.04
2022-08-23T01:12:56.386Z,98958.77
2022-08-23T01:15:33.105Z,98960.39
2022-08-23T01:18:06.478Z,98957.89
2022-08-23T01:20:44.022Z,98951.89
2022-08-23T01:23:34.267Z,98957.83
2022-08-23T01:26:03.086Z,98956.05
2022-08-23T01:28:32.070Z,98959.48
2022-08-23T01:31:01.206Z,98964.23
2022-08-23T01:33:30.401Z,98962.86
2022-08-23T01:35:59.173Z,98966.89
2022-08-23T01:38:32.896Z,98960.05
2022-08-23T01:41:01.583Z,98967.64
2022-08-23T01:43:29.762Z,98966.62
2022-08-23T01:45:57.627Z,98968.41
2022-08-23T01:48:25.538Z,98969.67
2022-08-23T01:50:53.330Z,98966.52
2022-08-23T01:53:21.836Z,98970.11
2022-08-23T01:55:51.890Z,98967.95
2022-08-23T01:58:21.551Z,98969.17
2022-08-23T02:00:49.516Z,98982.65
2022-08-23T02:03:17.391Z,98989.02
2022-08-23T02:05:45.871Z,98991.41
2022-08-23T02:08:33.950Z,98993.82
2022-08-23T02:11:12.743Z,98992.27
2022-08-23T02:13:42.580Z,98991.98
2022-08-23T02:16:14.937Z,98997.63
2022-08-23T02:18:44.623Z,98995.27
2022-08-23T02:21:13.062Z,98993.09
2022-08-23T02:23:41.054Z,98997.24
2022-08-23T02:26:09.131Z,99001.59
2022-08-23T02:28:37.511Z,99001.52
2022-08-23T02:31:06.959Z,99004.23
2022-08-23T02:33:38.127Z,98995.45
2022-08-23T02:36:06.423Z,99000.20
2022-08-23T02:38:35.661Z,98999.62
2022-08-23T02:41:03.991Z,99007.10
2022-08-23T02:43:38.265Z,99011.84
2022-08-23T02:46:09.083Z,99013.88
2022-08-23T02:48:39.243Z,99013.10
2022-08-23T02:51:10.093Z,99010.38
2022-08-23T02:53:39.462Z,98997.90
2022-08-23T02:56:13.082Z,98997.56
2022-08-23T02:58:54.238Z,98994.56
2022-08-23T03:01:30.606Z,98992.03
2022-08-23T03:04:04.735Z,98994.36
2022-08-23T03:06:33.138Z,98988.77
2022-08-23T03:09:01.162Z,98992.35
2022-08-23T03:11:29.683Z,98994.86
2022-08-23T03:13:58.281Z,98996.30
2022-08-23T03:16:28.727Z,98993.46
2022-08-23T03:18:57.407Z,98992.94
2022-08-23T03:21:25.181Z,98984.20
2022-08-23T03:23:55.040Z,98972.39
2022-08-23T03:26:26.844Z,98974.25
2022-08-23T03:28:56.713Z,98984.94
2022-08-23T03:31:26.962Z,98988.19
2022-08-23T03:34:06.637Z,98989.98
2022-08-23T03:36:35.630Z,98988.41
2022-08-23T03:39:06.037Z,98997.63
2022-08-23T03:41:35.099Z,99001.98
2022-08-23T03:44:04.977Z,99006.23
2022-08-23T03:46:35.890Z,99003.08
2022-08-23T03:49:08.433Z,99000.81
2022-08-23T03:51:50.081Z,98995.34
2022-08-23T03:54:19.188Z,98993.13
2022-08-23T03:57:00.222Z,98987.11
2022-08-23T03:59:35.067Z,98987.30
2022-08-23T04:02:05.749Z,98983.79
2022-08-23T04:04:34.602Z,98981.10
2022-08-23T04:07:33.069Z,98987.59
2022-08-23T04:10:01.773Z,98993.04
2022-08-23T04:12:33.807Z,98992.09
2022-08-23T04:15:03.506Z,98993.04
2022-08-23T04:17:33.448Z,98995.41
2022-08-23T04:20:03.918Z,98993.26
2022-08-23T04:22:33.729Z,98995.70
2022-08-23T04:25:05.316Z,99000.45
2022-08-23T04:27:54.034Z,99004.34
2022-08-23T04:30:24.059Z,99006.33
2022-08-23T04:32:52.285Z,99007.85
2022-08-23T04:35:20.689Z,99008.61
2022-08-23T04:37:49.742Z,99006.40
2022-08-23T04:40:36.580Z,99010.00
2022-08-23T04:43:06.711Z,99010.05
2022-08-23T04:45:38.886Z,99010.59
2022-08-23T04:48:12.167Z,99013.05
2022-08-23T04:50:41.728Z,99015.18
2022-08-23T04:53:17.081Z,99016.25
2022-08-23T04:55:56.358Z,99016.27
2022-08-23T04:58:24.308Z,99019.91
2022-08-23T05:00:53.568Z,99023.38
2022-08-23T05:03:29.898Z,99019.16
2022-08-23T05:05:59.138Z,99017.14
2022-08-23T05:08:34.062Z,99018.91
2022-08-23T05:11:05.598Z,99022.45
2022-08-23T05:13:35.140Z,99023.75
2022-08-23T05:16:06.339Z,99023.53
2022-08-23T05:18:37.324Z,99020.92
2022-08-23T05:21:06.461Z,99020.70
2022-08-23T05:23:34.659Z,99018.98
2022-08-23T05:26:07.470Z,99015.70
2022-08-23T05:28:42.339Z,99014.87
2022-08-23T05:31:14.886Z,99016.59
2022-08-23T05:33:51.497Z,99015.27
2022-08-23T05:36:25.848Z,99024.90
2022-08-23T05:38:54.393Z,99023.64
2022-08-23T05:41:33.373Z,99018.55
2022-08-23T05:44:10.611Z,99022.84
2022-08-23T05:46:42.368Z,99024.41
2022-08-23T05:49:29.350Z,99028.16
2022-08-23T05:51:57.657Z,99027.43
2022-08-23T05:54:28.562Z,99035.27
2022-08-23T05:57:15.562Z,99039.54
2022-08-23T05:59:45.691Z,99047.48
2022-08-23T06:02:13.557Z,99058.32
2022-08-23T06:04:41.714Z,99060.20
2022-08-23T06:07:11.330Z,99073.56
2022-08-23T06:09:39.765Z,99078.33
2022-08-23T06:12:11.364Z,99077.70
2022-08-23T06:14:40.215Z,99077.63
2022-08-23T06:17:08.784Z,99080.69
2022-08-23T06:19:39.214Z,99085.91
2022-08-23T06:22:26.057Z,99084.10
2022-08-23T06:24:54.310Z,99086.58
2022-08-23T06:27:35.679Z,99085.45
2022-08-23T06:30:04.038Z,99091.56
2022-08-23T06:32:32.306Z,99091.55
2022-08-23T06:35:38.031Z,99096.30
2022-08-23T06:38:13.200Z,99095.11
2022-08-23T06:40:47.475Z,99098.50
2022-08-23T06:43:29.588Z,99099.66
2022-08-23T06:46:23.489Z,99095.86
2022-08-23T06:48:53.729Z,99098.66
2022-08-23T06:51:30.345Z,99098.39
2022-08-23T06:54:22.564Z,99091.27
2022-08-23T06:57:10.455Z,99080.29
2022-08-23T06:59:57.354Z,99070.63
2022-08-23T07:02:38.254Z,99072.30
2022-08-23T07:05:25.419Z,99080.64
2022-08-23T07:08:10.034Z,99087.91
2022-08-23T07:10:38.341Z,99086.56
2022-08-23T07:13:06.464Z,99089.63
2022-08-23T07:15:35.571Z,99093.14
2022-08-23T07:18:05.712Z,99096.94
2022-08-23T07:20:41.549Z,99098.11
2022-08-23T07:23:10.316Z,99097.41
2022-08-23T07:25:43.208Z,99103.52
2022-08-23T07:28:14.345Z,99101.72
2022-08-23T07:30:45.580Z,99108.14
2022-08-23T07:33:16.408Z,99106.36
2022-08-23T07:36:52.750Z,99106.70
2022-08-23T07:39:22.546Z,99106.55
2022-08-23T07:41:52.898Z,99107.05
2022-08-23T07:44:27.087Z,99106.89
2022-08-23T07:46:56.378Z,99109.61
2022-08-23T07:49:29.346Z,99110.27
2022-08-23T07:51:59.072Z,99105.87
2022-08-23T07:54:29.364Z,99108.05
2022-08-23T07:57:10.739Z,99111.42
2022-08-23T07:59:57.994Z,99109.44
2022-08-23T08:02:45.414Z,99111.45
2022-08-23T08:05:32.178Z,99111.73
2022-08-23T08:08:02.025Z,99109.25
2022-08-23T08:10:30.417Z,99106.42
2022-08-23T08:12:58.840Z,99109.32
2022-08-23T08:15:27.315Z,99108.17
2022-08-23T08:28:31.790Z,99124.12
2022-08-23T08:30:59.001Z,99129.13
2022-08-23T08:33:27.539Z,99126.33
2022-08-23T08:36:01.782Z,99128.98
2022-08-23T08:38:30.637Z,99137.12
2022-08-23T08:41:10.177Z,99137.89
2022-08-23T08:44:02.056Z,99144.93
2022-08-23T08:46:36.168Z,99148.48
2022-08-23T08:49:07.162Z,99148.50
2022-08-23T08:51:43.696Z,99146.91
2022-08-23T08:54:18.985Z,99149.97
2022-08-23T08:56:53.012Z,99151.05
2022-08-23T08:59:58.923Z,99154.52
2022-08-23T09:02:33.347Z,99164.92
2022-08-23T09:05:11.787Z,99169.55
2022-08-23T09:08:07.110Z,99168.33
2022-08-23T09:10:53.618Z,99175.88
2022-08-23T09:13:56.024Z,99182.79
2022-08-23T09:16:50.063Z,99181.61
2022-08-23T09:19:18.837Z,99177.86
2022-08-23T09:21:48.794Z,99176.65
2022-08-23T09:24:16.561Z,99176.13
2022-08-23T09:27:04.745Z,99175.75
2022-08-23T09:29:37.242Z,99179.05
2022-08-23T09:32:25.319Z,99176.77
2022-08-23T09:34:51.975Z,99177.07
2022-08-23T09:37:24.200Z,99175.80
2022-08-23T09:40:12.303Z,99166.73
2022-08-23T09:42:40.717Z,99166.52
2022-08-23T09:48:46.045Z,99164.40
2022-08-23T09:51:22.703Z,99169.85
2022-08-23T09:54:06.018Z,99168.50
2022-08-23T09:56:41.396Z,99165.54
2022-08-23T09:59:27.722Z,99163.40
2022-08-23T10:02:02.290Z,99165.69
2022-08-23T10:04:42.073Z,99163.34
2022-08-23T10:07:33.352Z,99161.91
2022-08-23T10:10:21.073Z,99159.63
2022-08-23T10:12:50.041Z,99161.39
2022-08-23T10:15:25.619Z,99162.58
2022-08-23T10:18:03.547Z,99161.33
2022-08-23T10:20:47.003Z,99163.51
2022-08-23T10:23:20.958Z,99163.86
2022-08-23T10:26:00.601Z,99156.61
2022-08-23T10:29:09.954Z,99157.73
2022-08-23T10:32:18.212Z,99161.88
2022-08-23T10:34:58.657Z,99168.11
2022-08-23T10:37:56.022Z,99168.64
2022-08-23T10:40:30.600Z,99173.19
2022-08-23T10:43:26.384Z,99179.16
2022-08-23T10:46:00.831Z,99172.04
2022-08-23T10:48:49.065Z,99175.49
2022-08-23T10:51:31.812Z,99179.21
2022-08-23T10:54:08.153Z,99179.20
2022-08-23T10:56:44.334Z,99178.20
2022-08-23T10:59:21.446Z,99176.02
2022-08-23T11:02:00.123Z,99179.29
2022-08-23T11:05:01.169Z,99182.82
2022-08-23T11:07:43.570Z,99182.23
2022-08-23T11:10:36.248Z,99179.36
2022-08-23T11:13:06.961Z,99183.36
2022-08-23T11:16:01.036Z,99186.58
2022-08-23T11:18:48.807Z,99184.81
2022-08-23T11:23:54.815Z,99191.40
2022-08-23T11:26:23.471Z,99194.48
2022-08-23T11:29:22.212Z,99191.16
2022-08-23T11:32:29.358Z,99197.05
2022-08-23T11:35:12.737Z,99207.16
2022-08-23T11:37:50.600Z,99206.08
2022-08-23T12:02:47.552Z,99203.80
2022-08-23T12:05:22.078Z,99206.37
2022-08-23T12:08:17.003Z,99210.58
2022-08-23T12:10:45.921Z,99206.05
2022-08-23T12:13:22.596Z,99203.23
2022-08-23T12:16:17.100Z,99209.96
2022-08-23T12:18:54.259Z,99215.63
2022-08-23T12:21:38.585Z,99213.70
2022-08-23T12:24:33.164Z,99211.63
2022-08-23T12:27:08.029Z,99208.46
2022-08-23T12:29:54.962Z,99209.04
2022-08-23T12:32:49.705Z,99209.70
2022-08-23T12:35:25.472Z,99213.48
2022-08-23T12:38:14.985Z,99209.60
2022-08-23T12:40:44.965Z,99208.72
2022-08-23T12:43:22.541Z,99213.31
2022-08-23T12:46:01.796Z,99211.17
2022-08-23T12:48:45.416Z,99209.93
2022-08-23T12:51:13.106Z,99208.95
2022-08-23T12:53:45.174Z,99207.50
2022-08-23T12:56:22.232Z,99212.00
2022-08-23T12:59:07.069Z,99220.98
2022-08-23T13:01:36.859Z,99222.00
2022-08-23T13:04:08.889Z,99222.67
2022-08-23T13:14:44.206Z,99222.57
2022-08-23T13:17:26.041Z,99224.66
2022-08-23T13:20:01.993Z,99228.39
2022-08-23T13:22:37.770Z,99230.14
2022-08-23T13:25:35.670Z,99235.63
2022-08-23T13:28:22.476Z,99232.83
2022-08-23T13:31:03.440Z,99233.92
2022-08-23T13:33:31.075Z,99233.02
2022-08-23T13:36:22.751Z,99230.66
2022-08-23T13:38:49.766Z,99230.09
2022-08-23T13:41:38.827Z,99226.69
2022-08-23T13:44:08.231Z,99220.40
2022-08-23T13:46:44.244Z,99221.77
2022-08-23T13:49:19.348Z,99219.07
2022-08-23T13:52:11.936Z,99224.05
2022-08-23T13:54:51.292Z,99222.84
2022-08-23T13:57:21.714Z,99223.70
2022-08-23T13:59:59.386Z,99221.13
2022-08-23T14:02:30.571Z,99222.27
2022-08-23T14:04:58.189Z,99225.20
2022-08-23T14:07:24.775Z,99221.73
2022-08-23T14:09:54.928Z,99225.38
2022-08-23T14:12:27.540Z,99226.09
2022-08-23T14:14:58.742Z,99224.50
2022-08-23T14:17:25.996Z,99222.75
2022-08-23T14:20:43.795Z,99220.77
2022-08-23T14:23:11.627Z,99222.08
2022-08-23T14:25:39.380Z,99222.05
2022-08-23T14:28:05.986Z,99224.15
2022-08-23T14:30:36.129Z,99219.88
2022-08-23T14:33:03.992Z,99220.50
2022-08-23T14:35:31.537Z,99219.35
2022-08-23T14:38:03.341Z,99223.02
2022-08-23T14:40:31.108Z,99222.28
2022-08-23T14:42:58.112Z,99220.25
2022-08-23T14:45:25.618Z,99222.80
2022-08-23T14:47:52.589Z,99223.27
2022-08-23T14:50:21.640Z,99220.36
2022-08-23T14:52:48.178Z,99223.54
2022-08-23T14:55:21.046Z,99223.66
2022-08-23T14:57:51.189Z,99222.39
2022-08-23T15:00:20.569Z,99221.95
2022-08-23T15:02:49.689Z,99226.14
2022-08-23T15:05:17.005Z,99228.36
2022-08-23T15:07:44.881Z,99230.36
2022-08-23T15:10:49.764Z,99228.23
2022-08-23T15:13:20.368Z,99231.48
2022-08-23T15:15:49.893Z,99228.16
2022-08-23T15:18:17.657Z,99228.81
2022-08-23T15:20:45.447Z,99230.64
2022-08-23T15:23:13.001Z,99233.23
2022-08-23T15:25:41.772Z,99230.63
2022-08-23T15:28:13.216Z,99232.01
2022-08-23T15:30:42.128Z,99233.23
2022-08-23T15:33:10.618Z,99234.16
2022-08-23T15:35:45.789Z,99231.60
2022-08-23T15:38:14.387Z,99231.73
2022-08-23T15:40:43.723Z,99229.45
2022-08-23T15:43:12.069Z,99228.80
2022-08-23T15:45:39.030Z,99232.53
2022-08-23T15:48:30.505Z,99231.60
2022-08-23T15:50:58.646Z,99234.39
2022-08-23T15:53:27.359Z,99239.10
2022-08-23T15:55:54.430Z,99241.46
2022-08-23T15:58:24.824Z,99239.79
2022-08-23T16:00:53.881Z,99236.30
2022-08-23T16:03:22.561Z,99238.88
2022-08-23T16:05:53.093Z,99240.20
2022-08-23T16:08:27.099Z,99239.34
2022-08-23T16:10:55.358Z,99242.64
2022-08-23T16:13:27.263Z,99240.63
2022-08-23T16:15:54.425Z,99241.60
2022-08-23T16:18:22.725Z,99239.81
2022-08-23T16:20:54.585Z,99237.28
2022-08-23T16:23:25.877Z,99239.16
2022-08-23T16:25:52.867Z,99235.59
2022-08-23T16:28:19.833Z,99228.91
2022-08-23T16:30:47.455Z,99229.66
2022-08-23T16:33:14.047Z,99236.21
2022-08-23T16:35:40.947Z,99241.10
2022-08-23T16:38:08.825Z,99246.20
2022-08-23T16:40:35.881Z,99251.59
2022-08-23T16:43:02.996Z,99251.80
2022-08-23T16:45:29.616Z,99255.13
2022-08-23T16:47:56.341Z,99260.27
2022-08-23T16:50:23.455Z,99264.16
2022-08-23T16:52:50.865Z,99270.51
2022-08-23T16:55:18.640Z,99266.83
2022-08-23T16:57:46.402Z,99263.80
2022-08-23T17:00:14.917Z,99264.23
2022-08-23T17:02:43.341Z,99264.42
2022-08-23T17:05:14.793Z,99266.52
2022-08-23T17:07:42.666Z,99270.38
2022-08-23T17:10:12.947Z,99273.80
2022-08-23T17:12:57.319Z,99274.21
2022-08-23T17:15:26.209Z,99271.70
2022-08-23T17:17:54.967Z,99272.80
2022-08-23T17:20:24.693Z,99273.72
2022-08-23T17:22:53.979Z,99272.83
2022-08-23T17:25:24.122Z,99269.59
2022-08-23T17:27:53.909Z,99273.45
2022-08-23T17:30:24.420Z,99272.95
2022-08-23T17:32:52.994Z,99273.03
2022-08-23T17:35:23.900Z,99275.92
2022-08-23T17:38:01.689Z,99277.90
2022-08-23T17:40:43.229Z,99282.66
2022-08-23T17:43:11.939Z,99284.09
2022-08-23T17:45:45.886Z,99291.42
2022-08-23T17:48:16.147Z,99291.95
2022-08-23T17:50:47.921Z,99295.69
2022-08-23T17:53:17.919Z,99296.41
2022-08-23T17:55:44.514Z,99303.44
2022-08-23T17:58:13.676Z,99309.09
2022-08-23T18:00:40.537Z,99314.76
2022-08-23T18:03:07.223Z,99319.68
2022-08-23T18:05:37.169Z,99323.41
2022-08-23T18:08:07.959Z,99327.17
2022-08-23T18:10:35.529Z,99331.89
2022-08-23T18:13:02.702Z,99339.00
2022-08-23T18:15:37.153Z,99342.44
2022-08-23T18:18:03.681Z,99345.45
2022-08-23T18:20:31.051Z,99345.30
2022-08-23T18:23:55.906Z,99343.14
2022-08-23T18:26:43.750Z,99348.83
2022-08-23T18:29:17.021Z,99344.35
2022-08-23T18:31:45.439Z,99346.75
2022-08-23T18:34:20.377Z,99346.48
2022-08-23T18:36:48.932Z,99348.07
2022-08-23T18:39:16.929Z,99349.27
2022-08-23T18:42:05.729Z,99351.42
2022-08-23T18:44:34.035Z,99349.77
2022-08-23T18:47:03.732Z,99348.83
2022-08-23T18:49:34.142Z,99343.66
2022-08-23T18:52:06.928Z,99344.73
2022-08-23T18:54:34.766Z,99344.67
2022-08-23T18:57:03.698Z,99348.66
2022-08-23T18:59:32.393Z,99352.46
2022-08-23T19:02:00.497Z,99357.65
2022-08-23T19:04:30.324Z,99357.86
2022-08-23T19:06:58.628Z,99361.42
2022-08-23T19:09:28.096Z,99362.41
2022-08-23T19:11:56.800Z,99367.52
2022-08-23T19:14:24.821Z,99369.86
2022-08-23T19:16:52.766Z,99371.65
2022-08-23T19:19:23.207Z,99374.23
2022-08-23T19:21:51.096Z,99378.35
2022-08-23T19:24:19.328Z,99381.48
2022-08-23T19:26:48.798Z,99380.53
2022-08-23T19:29:18.729Z,99385.38
2022-08-23T19:31:48.871Z,99381.61
2022-08-23T19:34:18.772Z,99381.32
2022-08-23T19:36:51.266Z,99385.74
2022-08-23T19:39:27.787Z,99383.36
2022-08-23T19:41:58.795Z,99387.58
2022-08-23T19:44:28.310Z,99386.74
2022-08-23T19:46:56.976Z,99389.42
2022-08-23T19:49:25.273Z,99391.45
2022-08-23T19:51:53.479Z,99395.34
2022-08-23T19:54:23.137Z,99391.17
2022-08-23T19:56:57.635Z,99396.30
2022-08-23T19:59:33.085Z,99397.89
2022-08-23T20:02:02.861Z,99398.79
2022-08-23T20:04:33.039Z,99401.30
2022-08-23T20:07:02.857Z,99403.30
2022-08-23T20:09:32.132Z,99406.79
2022-08-23T20:12:01.118Z,99407.93
2022-08-23T20:14:33.946Z,99412.81
2022-08-23T20:17:04.528Z,99415.63
2022-08-23T20:19:32.891Z,99415.20
2022-08-23T20:22:20.581Z,99415.54
2022-08-23T20:24:52.621Z,99412.73
2022-08-23T20:27:24.525Z,99419.25
2022-08-23T20:30:06.588Z,99417.37
2022-08-23T20:32:36.224Z,99418.95
2022-08-23T20:35:14.839Z,99415.17
2022-08-23T20:37:53.395Z,99421.11
2022-08-23T20:40:21.971Z,99422.02
2022-08-23T20:42:51.635Z,99419.27
2022-08-23T20:45:20.823Z,99421.85
2022-08-23T20:47:49.087Z,99419.59
2022-08-23T20:50:18.512Z,99422.23
2022-08-23T20:52:48.313Z,99414.69
2022-08-23T20:55:17.396Z,99410.33
2022-08-23T20:57:54.111Z,99412.72
2022-08-23T21:00:22.852Z,99412.02
2022-08-23T21:02:52.301Z,99409.27
2022-08-23T21:05:21.739Z,99410.46
2022-08-23T21:07:53.051Z,99409.40
2022-08-23T21:10:21.674Z,99409.08
2022-08-23T21:12:51.145Z,99403.60
2022-08-23T21:15:22.945Z,99399.44
2022-08-23T21:17:51.948Z,99400.02
2022-08-23T21:20:20.223Z,99398.25
2022-08-23T21:22:48.661Z,99396.63
2022-08-23T21:25:17.514Z,99390.22
2022-08-23T21:27:45.688Z,99393.89
2022-08-23T21:30:15.624Z,99394.96
2022-08-23T21:32:45.869Z,99393.98
2022-08-23T21:35:14.588Z,99390.43
2022-08-23T21:37:43.273Z,99392.89
2022-08-23T21:40:13.215Z,99393.61
2022-08-23T21:42:42.233Z,99390.91
2022-08-23T21:45:10.301Z,99389.31
2022-08-23T21:47:38.688Z,99387.52
2022-08-23T21:50:07.241Z,99382.45
2022-08-23T21:52:35.595Z,99375.71
2022-08-23T21:55:04.876Z,99371.78
2022-08-23T21:57:33.997Z,99374.90
2022-08-23T22:00:19.049Z,99373.04
2022-08-23T22:02:47.886Z,99372.38
2022-08-23T22:05:17.271Z,99373.67
2022-08-23T22:07:46.257Z,99376.72
2022-08-23T22:10:14.682Z,99381.84
2022-08-23T22:12:43.581Z,99381.65
2022-08-23T22:15:11.658Z,99379.31
2022-08-23T22:17:40.005Z,99379.68
2022-08-23T22:20:13.627Z,99380.38
2022-08-23T22:22:42.892Z,99375.34
2022-08-23T22:25:12.718Z,99372.52
2022-08-23T22:27:40.976Z,99370.07
2022-08-23T22:30:09.566Z,99371.50
2022-08-23T22:32:38.615Z,99372.59
2022-08-23T22:35:08.981Z,99363.00
2022-08-23T22:37:49.384Z,99359.18
2022-08-23T22:40:27.601Z,99360.75
2022-08-23T22:42:56.445Z,99362.77
2022-08-23T22:45:24.866Z,99366.05
2022-08-23T22:47:54.328Z,99363.56
2022-08-23T22:50:24.174Z,99369.47
2022-08-23T22:52:52.482Z,99366.95
2022-08-23T22:55:22.067Z,99369.73
2022-08-23T22:57:50.855Z,99367.29
2022-08-23T23:00:19.932Z,99364.97
2022-08-23T23:02:48.012Z,99356.80
2022-08-23T23:05:15.935Z,99358.23
2022-08-23T23:08:02.923Z,99362.98
2022-08-23T23:10:31.731Z,99371.38
2022-08-23T23:12:59.962Z,99367.48
2022-08-23T23:15:28.016Z,99374.45
2022-08-23T23:17:59.417Z,99376.20
2022-08-23T23:20:42.996Z,99378.04
2022-08-23T23:23:18.201Z,99379.35
2022-08-23T23:25:48.046Z,99376.65
2022-08-23T23:28:18.102Z,99372.74
2022-08-23T23:30:48.664Z,99370.34
2022-08-23T23:33:22.495Z,99374.73
2022-08-23T23:35:55.234Z,99379.06
2022-08-23T23:38:23.409Z,99386.13
2022-08-23T23:40:52.264Z,99388.13
2022-08-23T23:43:20.545Z,99388.36
2022-08-23T23:45:49.532Z,99393.30
2022-08-23T23:48:20.446Z,99389.98
2022-08-23T23:50:50.060Z,99393.23
2022-08-23T23:53:20.698Z,99398.18
2022-08-23T23:55:51.263Z,99397.06
2022-08-23T23:58:22.036Z,99402.02
